sensor_id;sensor_type;location;lat;lon;timestamp;temperature;humidity
52743;DHT22;55583;53.012;6.556;2023-03-14T00:01:12;9.20;99.90
52743;DHT22;55583;53.012;6.556;2023-03-14T00:03:39;9.20;99.90
52743;DHT22;55583;53.012;6.556;2023-03-14T00:06:05;9.30;99.90
52743;DHT22;55583;53.012;6.556;2023-03-14T00:08:32;9.30;99.90
52743;DHT22;55583;53.012;6.556;2023-03-14T00:11:03;9.40;99.90
52743;DHT22;55583;53.012;6.556;2023-03-14T00:13:28;9.50;99.90
52743;DHT22;55583;53.012;6.556;2023-03-14T00:15:54;9.60;99.90
52743;DHT22;55583;53.012;6.556;2023-03-14T00:18:20;9.90;99.90
52743;DHT22;55583;53.012;6.556;2023-03-14T00:20:45;9.80;99.90
52743;DHT22;55583;53.012;6.556;2023-03-14T00:23:11;9.80;99.90
52743;DHT22;55583;53.012;6.556;2023-03-14T00:25:37;9.90;99.90
52743;DHT22;55583;53.012;6.556;2023-03-14T00:28:03;10.00;99.90
52743;DHT22;55583;53.012;6.556;2023-03-14T00:30:28;10.10;99.90
52743;DHT22;55583;53.012;6.556;2023-03-14T00:32:54;10.20;99.90
52743;DHT22;55583;53.012;6.556;2023-03-14T00:35:19;10.20;99.90
52743;DHT22;55583;53.012;6.556;2023-03-14T00:37:45;10.30;99.90
52743;DHT22;55583;53.012;6.556;2023-03-14T00:40:11;10.40;99.90
52743;DHT22;55583;53.012;6.556;2023-03-14T00:42:36;10.40;99.90
52743;DHT22;55583;53.012;6.556;2023-03-14T00:45:02;10.40;99.90
52743;DHT22;55583;53.012;6.556;2023-03-14T00:47:29;10.40;99.90
52743;DHT22;55583;53.012;6.556;2023-03-14T00:49:54;10.40;99.90
52743;DHT22;55583;53.012;6.556;2023-03-14T00:52:20;10.40;99.90
52743;DHT22;55583;53.012;6.556;2023-03-14T00:54:46;10.40;99.90
52743;DHT22;55583;53.012;6.556;2023-03-14T00:57:11;10.40;99.90
52743;DHT22;55583;53.012;6.556;2023-03-14T00:59:37;10.30;99.90
52743;DHT22;55583;53.012;6.556;2023-03-14T01:02:03;10.20;99.90
52743;DHT22;55583;53.012;6.556;2023-03-14T01:04:28;10.20;99.90
52743;DHT22;55583;53.012;6.556;2023-03-14T01:06:56;10.20;99.90
52743;DHT22;55583;53.012;6.556;2023-03-14T01:09:22;10.20;99.90
52743;DHT22;55583;53.012;6.556;2023-03-14T01:11:47;10.20;99.90
52743;DHT22;55583;53.012;6.556;2023-03-14T01:14:14;10.30;99.90
52743;DHT22;55583;53.012;6.556;2023-03-14T01:16:40;10.30;99.90
52743;DHT22;55583;53.012;6.556;2023-03-14T01:19:05;10.30;99.90
52743;DHT22;55583;53.012;6.556;2023-03-14T01:21:33;10.40;99.90
52743;DHT22;55583;53.012;6.556;2023-03-14T01:24:00;10.40;99.90
52743;DHT22;55583;53.012;6.556;2023-03-14T01:26:29;10.40;99.90
52743;DHT22;55583;53.012;6.556;2023-03-14T01:28:55;10.40;99.90
52743;DHT22;55583;53.012;6.556;2023-03-14T01:31:22;10.30;99.90
52743;DHT22;55583;53.012;6.556;2023-03-14T01:33:47;10.40;99.90
52743;DHT22;55583;53.012;6.556;2023-03-14T01:36:13;10.50;99.90
52743;DHT22;55583;53.012;6.556;2023-03-14T01:38:40;10.60;99.90
52743;DHT22;55583;53.012;6.556;2023-03-14T01:41:07;10.60;99.90
52743;DHT22;55583;53.012;6.556;2023-03-14T01:43:33;10.60;99.90
52743;DHT22;55583;53.012;6.556;2023-03-14T01:51:02;10.60;99.90
52743;DHT22;55583;53.012;6.556;2023-03-14T01:53:29;10.50;99.90
52743;DHT22;55583;53.012;6.556;2023-03-14T01:55:55;10.50;99.90
52743;DHT22;55583;53.012;6.556;2023-03-14T01:58:26;10.50;99.90
52743;DHT22;55583;53.012;6.556;2023-03-14T02:00:53;10.50;99.90
52743;DHT22;55583;53.012;6.556;2023-03-14T02:03:20;10.40;99.90
52743;DHT22;55583;53.012;6.556;2023-03-14T02:05:48;10.60;99.90
52743;DHT22;55583;53.012;6.556;2023-03-14T02:08:17;10.40;99.90
52743;DHT22;55583;53.012;6.556;2023-03-14T02:10:45;10.40;99.90
52743;DHT22;55583;53.012;6.556;2023-03-14T02:13:12;10.40;99.90
52743;DHT22;55583;53.012;6.556;2023-03-14T02:15:39;10.40;99.90
52743;DHT22;55583;53.012;6.556;2023-03-14T02:18:05;10.50;99.90
52743;DHT22;55583;53.012;6.556;2023-03-14T02:23:20;10.40;99.90
52743;DHT22;55583;53.012;6.556;2023-03-14T02:26:42;10.30;99.90
52743;DHT22;55583;53.012;6.556;2023-03-14T02:28:48;10.40;99.90
52743;DHT22;55583;53.012;6.556;2023-03-14T02:31:15;10.40;99.90
52743;DHT22;55583;53.012;6.556;2023-03-14T02:33:41;10.30;99.90
52743;DHT22;55583;53.012;6.556;2023-03-14T02:36:12;10.30;99.90
52743;DHT22;55583;53.012;6.556;2023-03-14T02:39:15;10.30;99.90
52743;DHT22;55583;53.012;6.556;2023-03-14T02:41:44;10.30;99.90
52743;DHT22;55583;53.012;6.556;2023-03-14T02:44:11;10.20;99.90
52743;DHT22;55583;53.012;6.556;2023-03-14T02:46:37;10.20;99.90
52743;DHT22;55583;53.012;6.556;2023-03-14T02:49:08;10.20;99.90
52743;DHT22;55583;53.012;6.556;2023-03-14T02:51:35;10.20;99.90
52743;DHT22;55583;53.012;6.556;2023-03-14T02:54:01;10.20;99.90
52743;DHT22;55583;53.012;6.556;2023-03-14T02:56:26;10.20;99.90
52743;DHT22;55583;53.012;6.556;2023-03-14T02:58:52;10.10;99.90
52743;DHT22;55583;53.012;6.556;2023-03-14T03:01:17;10.40;99.90
52743;DHT22;55583;53.012;6.556;2023-03-14T03:03:43;10.10;99.90
52743;DHT22;55583;53.012;6.556;2023-03-14T03:06:09;10.10;99.90
52743;DHT22;55583;53.012;6.556;2023-03-14T03:08:34;10.10;99.90
52743;DHT22;55583;53.012;6.556;2023-03-14T03:11:00;10.10;99.90
52743;DHT22;55583;53.012;6.556;2023-03-14T03:13:26;10.00;99.90
52743;DHT22;55583;53.012;6.556;2023-03-14T03:15:52;10.00;99.90
52743;DHT22;55583;53.012;6.556;2023-03-14T03:18:18;10.40;99.90
52743;DHT22;55583;53.012;6.556;2023-03-14T03:20:43;10.00;99.90
52743;DHT22;55583;53.012;6.556;2023-03-14T03:23:09;9.80;99.90
52743;DHT22;55583;53.012;6.556;2023-03-14T03:25:35;9.70;99.90
52743;DHT22;55583;53.012;6.556;2023-03-14T03:28:00;9.70;99.90
52743;DHT22;55583;53.012;6.556;2023-03-14T03:30:26;10.30;99.90
52743;DHT22;55583;53.012;6.556;2023-03-14T03:32:52;9.60;99.90
52743;DHT22;55583;53.012;6.556;2023-03-14T03:35:18;9.90;99.90
52743;DHT22;55583;53.012;6.556;2023-03-14T03:37:43;9.50;99.90
52743;DHT22;55583;53.012;6.556;2023-03-14T03:40:10;9.50;99.90
52743;DHT22;55583;53.012;6.556;2023-03-14T03:42:36;9.50;99.90
52743;DHT22;55583;53.012;6.556;2023-03-14T03:45:02;9.50;99.90
52743;DHT22;55583;53.012;6.556;2023-03-14T03:47:29;9.50;99.90
52743;DHT22;55583;53.012;6.556;2023-03-14T03:49:55;9.50;99.90
52743;DHT22;55583;53.012;6.556;2023-03-14T03:52:20;9.50;99.90
52743;DHT22;55583;53.012;6.556;2023-03-14T03:54:46;9.50;99.90
52743;DHT22;55583;53.012;6.556;2023-03-14T03:57:12;9.40;99.90
52743;DHT22;55583;53.012;6.556;2023-03-14T03:59:38;9.40;99.90
52743;DHT22;55583;53.012;6.556;2023-03-14T04:02:05;9.30;99.90
52743;DHT22;55583;53.012;6.556;2023-03-14T04:04:31;9.30;99.90
52743;DHT22;55583;53.012;6.556;2023-03-14T04:06:57;9.30;99.90
52743;DHT22;55583;53.012;6.556;2023-03-14T04:09:22;9.30;99.90
52743;DHT22;55583;53.012;6.556;2023-03-14T04:11:48;9.20;99.90
52743;DHT22;55583;53.012;6.556;2023-03-14T04:14:14;9.20;99.90
52743;DHT22;55583;53.012;6.556;2023-03-14T04:16:39;9.10;99.90
52743;DHT22;55583;53.012;6.556;2023-03-14T04:19:05;9.20;99.90
52743;DHT22;55583;53.012;6.556;2023-03-14T04:21:30;9.10;99.90
52743;DHT22;55583;53.012;6.556;2023-03-14T04:23:56;9.00;99.90
52743;DHT22;55583;53.012;6.556;2023-03-14T04:26:22;9.00;99.90
52743;DHT22;55583;53.012;6.556;2023-03-14T04:28:47;9.00;99.90
52743;DHT22;55583;53.012;6.556;2023-03-14T04:31:16;9.00;99.90
52743;DHT22;55583;53.012;6.556;2023-03-14T04:33:42;8.90;99.90
52743;DHT22;55583;53.012;6.556;2023-03-14T04:36:09;8.90;99.90
52743;DHT22;55583;53.012;6.556;2023-03-14T04:38:34;8.90;99.90
52743;DHT22;55583;53.012;6.556;2023-03-14T04:41:00;8.90;99.90
52743;DHT22;55583;53.012;6.556;2023-03-14T04:43:26;8.90;99.90
52743;DHT22;55583;53.012;6.556;2023-03-14T04:45:56;8.90;99.90
52743;DHT22;55583;53.012;6.556;2023-03-14T04:48:23;8.90;99.90
52743;DHT22;55583;53.012;6.556;2023-03-14T04:50:49;8.90;99.90
52743;DHT22;55583;53.012;6.556;2023-03-14T04:53:16;8.90;99.90
52743;DHT22;55583;53.012;6.556;2023-03-14T04:55:42;8.90;99.90
52743;DHT22;55583;53.012;6.556;2023-03-14T04:58:08;8.90;99.90
52743;DHT22;55583;53.012;6.556;2023-03-14T05:00:33;8.90;99.90
52743;DHT22;55583;53.012;6.556;2023-03-14T05:02:59;9.00;99.90
52743;DHT22;55583;53.012;6.556;2023-03-14T05:05:25;8.80;99.90
52743;DHT22;55583;53.012;6.556;2023-03-14T05:07:51;8.90;99.90
52743;DHT22;55583;53.012;6.556;2023-03-14T05:10:16;8.80;99.90
52743;DHT22;55583;53.012;6.556;2023-03-14T05:12:42;8.80;99.90
52743;DHT22;55583;53.012;6.556;2023-03-14T05:15:08;8.90;99.90
52743;DHT22;55583;53.012;6.556;2023-03-14T05:17:34;8.90;99.90
52743;DHT22;55583;53.012;6.556;2023-03-14T05:20:00;8.90;99.90
52743;DHT22;55583;53.012;6.556;2023-03-14T05:22:26;8.90;99.90
52743;DHT22;55583;53.012;6.556;2023-03-14T05:24:52;8.90;99.90
52743;DHT22;55583;53.012;6.556;2023-03-14T05:27:22;8.90;99.90
52743;DHT22;55583;53.012;6.556;2023-03-14T05:29:48;8.80;99.90
52743;DHT22;55583;53.012;6.556;2023-03-14T05:32:14;8.90;99.90
52743;DHT22;55583;53.012;6.556;2023-03-14T05:34:39;8.90;99.90
52743;DHT22;55583;53.012;6.556;2023-03-14T05:37:05;8.80;99.90
52743;DHT22;55583;53.012;6.556;2023-03-14T05:39:30;8.70;99.90
52743;DHT22;55583;53.012;6.556;2023-03-14T05:41:56;8.70;99.90
52743;DHT22;55583;53.012;6.556;2023-03-14T05:44:22;8.60;99.90
52743;DHT22;55583;53.012;6.556;2023-03-14T05:46:47;8.60;99.90
52743;DHT22;55583;53.012;6.556;2023-03-14T05:49:13;8.60;99.90
52743;DHT22;55583;53.012;6.556;2023-03-14T05:51:39;8.60;99.90
52743;DHT22;55583;53.012;6.556;2023-03-14T05:54:04;8.60;99.90
52743;DHT22;55583;53.012;6.556;2023-03-14T05:56:30;8.60;99.90
52743;DHT22;55583;53.012;6.556;2023-03-14T05:58:55;8.60;99.90
52743;DHT22;55583;53.012;6.556;2023-03-14T06:01:21;8.60;99.90
52743;DHT22;55583;53.012;6.556;2023-03-14T06:03:47;8.60;99.90
52743;DHT22;55583;53.012;6.556;2023-03-14T06:06:12;8.60;99.90
52743;DHT22;55583;53.012;6.556;2023-03-14T06:08:38;8.60;99.90
52743;DHT22;55583;53.012;6.556;2023-03-14T06:11:04;8.60;99.90
52743;DHT22;55583;53.012;6.556;2023-03-14T06:13:29;8.60;99.90
52743;DHT22;55583;53.012;6.556;2023-03-14T06:15:55;8.60;99.90
52743;DHT22;55583;53.012;6.556;2023-03-14T06:18:21;8.80;99.90
52743;DHT22;55583;53.012;6.556;2023-03-14T06:20:46;8.50;99.90
52743;DHT22;55583;53.012;6.556;2023-03-14T06:23:12;8.50;99.90
52743;DHT22;55583;53.012;6.556;2023-03-14T06:25:38;8.60;99.90
52743;DHT22;55583;53.012;6.556;2023-03-14T06:28:04;8.60;99.90
52743;DHT22;55583;53.012;6.556;2023-03-14T06:30:29;8.80;99.90
52743;DHT22;55583;53.012;6.556;2023-03-14T06:32:55;8.30;99.90
52743;DHT22;55583;53.012;6.556;2023-03-14T06:35:22;8.60;99.90
52743;DHT22;55583;53.012;6.556;2023-03-14T06:37:48;8.60;99.90
52743;DHT22;55583;53.012;6.556;2023-03-14T06:40:13;8.60;99.90
52743;DHT22;55583;53.012;6.556;2023-03-14T06:42:44;8.60;99.90
52743;DHT22;55583;53.012;6.556;2023-03-14T06:45:09;8.60;99.90
52743;DHT22;55583;53.012;6.556;2023-03-14T06:47:35;8.60;99.90
52743;DHT22;55583;53.012;6.556;2023-03-14T06:50:01;8.60;99.90
52743;DHT22;55583;53.012;6.556;2023-03-14T06:52:27;8.60;99.90
52743;DHT22;55583;53.012;6.556;2023-03-14T06:54:52;8.60;99.90
52743;DHT22;55583;53.012;6.556;2023-03-14T06:57:18;8.50;99.90
52743;DHT22;55583;53.012;6.556;2023-03-14T06:59:44;8.50;99.90
52743;DHT22;55583;53.012;6.556;2023-03-14T07:02:12;8.50;99.90
52743;DHT22;55583;53.012;6.556;2023-03-14T07:04:38;9.10;99.90
52743;DHT22;55583;53.012;6.556;2023-03-14T07:07:04;8.60;99.90
52743;DHT22;55583;53.012;6.556;2023-03-14T07:09:31;7.80;99.90
52743;DHT22;55583;53.012;6.556;2023-03-14T07:11:57;7.50;99.90
52743;DHT22;55583;53.012;6.556;2023-03-14T07:14:23;7.30;99.90
52743;DHT22;55583;53.012;6.556;2023-03-14T07:16:49;7.00;99.90
52743;DHT22;55583;53.012;6.556;2023-03-14T07:19:14;6.80;99.90
52743;DHT22;55583;53.012;6.556;2023-03-14T07:21:40;6.70;99.90
52743;DHT22;55583;53.012;6.556;2023-03-14T07:24:06;6.40;99.90
52743;DHT22;55583;53.012;6.556;2023-03-14T07:26:31;6.30;99.90
52743;DHT22;55583;53.012;6.556;2023-03-14T07:28:57;6.10;99.90
52743;DHT22;55583;53.012;6.556;2023-03-14T07:31:23;6.00;99.90
52743;DHT22;55583;53.012;6.556;2023-03-14T07:33:48;5.80;99.90
52743;DHT22;55583;53.012;6.556;2023-03-14T07:36:15;5.60;99.90
52743;DHT22;55583;53.012;6.556;2023-03-14T07:38:41;5.50;99.90
52743;DHT22;55583;53.012;6.556;2023-03-14T07:41:08;5.40;99.90
52743;DHT22;55583;53.012;6.556;2023-03-14T07:43:34;5.30;99.90
52743;DHT22;55583;53.012;6.556;2023-03-14T07:45:59;5.10;99.90
52743;DHT22;55583;53.012;6.556;2023-03-14T07:48:25;5.00;99.90
52743;DHT22;55583;53.012;6.556;2023-03-14T07:50:52;4.80;99.90
52743;DHT22;55583;53.012;6.556;2023-03-14T07:53:19;4.70;99.90
52743;DHT22;55583;53.012;6.556;2023-03-14T07:55:45;4.70;99.90
52743;DHT22;55583;53.012;6.556;2023-03-14T07:58:12;4.60;99.90
52743;DHT22;55583;53.012;6.556;2023-03-14T08:00:38;4.50;99.90
52743;DHT22;55583;53.012;6.556;2023-03-14T08:03:04;4.50;99.90
52743;DHT22;55583;53.012;6.556;2023-03-14T08:05:30;4.60;99.90
52743;DHT22;55583;53.012;6.556;2023-03-14T08:07:55;4.60;99.90
52743;DHT22;55583;53.012;6.556;2023-03-14T08:10:21;4.70;99.90
52743;DHT22;55583;53.012;6.556;2023-03-14T08:12:55;4.70;99.90
52743;DHT22;55583;53.012;6.556;2023-03-14T08:15:22;4.70;99.90
52743;DHT22;55583;53.012;6.556;2023-03-14T08:17:47;4.70;99.90
52743;DHT22;55583;53.012;6.556;2023-03-14T08:20:17;4.80;99.90
52743;DHT22;55583;53.012;6.556;2023-03-14T08:22:44;5.10;99.90
52743;DHT22;55583;53.012;6.556;2023-03-14T08:25:09;4.90;99.90
52743;DHT22;55583;53.012;6.556;2023-03-14T08:27:36;5.00;99.90
52743;DHT22;55583;53.012;6.556;2023-03-14T08:30:05;5.00;99.90
52743;DHT22;55583;53.012;6.556;2023-03-14T08:32:31;5.00;99.90
52743;DHT22;55583;53.012;6.556;2023-03-14T08:34:57;5.00;99.90
52743;DHT22;55583;53.012;6.556;2023-03-14T08:37:22;5.10;99.90
52743;DHT22;55583;53.012;6.556;2023-03-14T08:39:50;5.20;99.90
52743;DHT22;55583;53.012;6.556;2023-03-14T08:42:15;5.30;99.90
52743;DHT22;55583;53.012;6.556;2023-03-14T08:44:41;5.40;99.90
52743;DHT22;55583;53.012;6.556;2023-03-14T08:47:07;5.30;99.90
52743;DHT22;55583;53.012;6.556;2023-03-14T08:49:32;5.40;99.90
52743;DHT22;55583;53.012;6.556;2023-03-14T08:51:58;5.50;99.90
52743;DHT22;55583;53.012;6.556;2023-03-14T08:54:24;5.50;99.90
52743;DHT22;55583;53.012;6.556;2023-03-14T08:56:49;5.60;99.90
52743;DHT22;55583;53.012;6.556;2023-03-14T08:59:15;5.70;99.90
52743;DHT22;55583;53.012;6.556;2023-03-14T09:01:41;5.70;99.90
52743;DHT22;55583;53.012;6.556;2023-03-14T09:04:06;5.70;99.90
52743;DHT22;55583;53.012;6.556;2023-03-14T09:06:32;5.80;99.90
52743;DHT22;55583;53.012;6.556;2023-03-14T09:08:58;5.80;99.90
52743;DHT22;55583;53.012;6.556;2023-03-14T09:11:23;5.90;99.90
52743;DHT22;55583;53.012;6.556;2023-03-14T09:13:49;6.00;99.90
52743;DHT22;55583;53.012;6.556;2023-03-14T09:16:15;6.00;99.90
52743;DHT22;55583;53.012;6.556;2023-03-14T09:18:41;6.10;99.90
52743;DHT22;55583;53.012;6.556;2023-03-14T09:21:07;6.20;99.90
52743;DHT22;55583;53.012;6.556;2023-03-14T09:23:32;6.40;99.90
52743;DHT22;55583;53.012;6.556;2023-03-14T09:25:59;6.40;99.90
52743;DHT22;55583;53.012;6.556;2023-03-14T09:28:25;6.50;99.90
52743;DHT22;55583;53.012;6.556;2023-03-14T09:30:51;6.40;99.90
52743;DHT22;55583;53.012;6.556;2023-03-14T09:33:18;6.30;99.90
52743;DHT22;55583;53.012;6.556;2023-03-14T09:35:44;7.50;99.90
52743;DHT22;55583;53.012;6.556;2023-03-14T09:38:09;6.60;99.90
52743;DHT22;55583;53.012;6.556;2023-03-14T09:40:36;6.80;99.90
52743;DHT22;55583;53.012;6.556;2023-03-14T09:43:02;6.90;99.90
52743;DHT22;55583;53.012;6.556;2023-03-14T09:45:32;6.90;99.90
52743;DHT22;55583;53.012;6.556;2023-03-14T09:47:58;6.70;99.90
52743;DHT22;55583;53.012;6.556;2023-03-14T09:50:26;6.50;99.90
52743;DHT22;55583;53.012;6.556;2023-03-14T09:52:56;6.40;99.90
52743;DHT22;55583;53.012;6.556;2023-03-14T09:55:24;6.30;99.90
52743;DHT22;55583;53.012;6.556;2023-03-14T09:57:56;6.30;99.90
52743;DHT22;55583;53.012;6.556;2023-03-14T10:00:29;6.30;99.90
52743;DHT22;55583;53.012;6.556;2023-03-14T10:05:35;6.20;99.90
52743;DHT22;55583;53.012;6.556;2023-03-14T10:08:00;6.20;99.90
52743;DHT22;55583;53.012;6.556;2023-03-14T10:10:26;6.30;99.90
52743;DHT22;55583;53.012;6.556;2023-03-14T10:13:05;6.40;99.90
52743;DHT22;55583;53.012;6.556;2023-03-14T10:15:34;6.50;99.90
52743;DHT22;55583;53.012;6.556;2023-03-14T10:18:01;6.40;99.90
52743;DHT22;55583;53.012;6.556;2023-03-14T10:20:32;6.30;99.90
52743;DHT22;55583;53.012;6.556;2023-03-14T10:23:33;6.10;99.90
52743;DHT22;55583;53.012;6.556;2023-03-14T10:26:08;6.10;99.90
52743;DHT22;55583;53.012;6.556;2023-03-14T10:28:39;6.30;99.90
52743;DHT22;55583;53.012;6.556;2023-03-14T10:31:06;6.30;99.90
52743;DHT22;55583;53.012;6.556;2023-03-14T10:33:35;6.20;99.90
52743;DHT22;55583;53.012;6.556;2023-03-14T10:36:03;6.20;99.90
52743;DHT22;55583;53.012;6.556;2023-03-14T10:38:35;6.20;99.90
52743;DHT22;55583;53.012;6.556;2023-03-14T10:41:02;6.20;99.90
52743;DHT22;55583;53.012;6.556;2023-03-14T10:43:32;6.40;99.90
52743;DHT22;55583;53.012;6.556;2023-03-14T10:48:33;6.70;99.90
52743;DHT22;55583;53.012;6.556;2023-03-14T10:51:07;6.70;99.90
52743;DHT22;55583;53.012;6.556;2023-03-14T10:56:18;7.30;99.90
52743;DHT22;55583;53.012;6.556;2023-03-14T10:59:06;7.80;99.90
52743;DHT22;55583;53.012;6.556;2023-03-14T11:04:59;8.20;99.90
52743;DHT22;55583;53.012;6.556;2023-03-14T11:07:39;9.10;99.90
52743;DHT22;55583;53.012;6.556;2023-03-14T11:23:39;8.40;99.90
52743;DHT22;55583;53.012;6.556;2023-03-14T11:28:40;10.90;99.90
52743;DHT22;55583;53.012;6.556;2023-03-14T11:31:29;12.30;90.20
52743;DHT22;55583;53.012;6.556;2023-03-14T11:36:41;13.30;85.80
52743;DHT22;55583;53.012;6.556;2023-03-14T11:39:16;12.60;77.50
52743;DHT22;55583;53.012;6.556;2023-03-14T11:41:49;12.00;81.20
52743;DHT22;55583;53.012;6.556;2023-03-14T11:44:20;11.10;92.30
52743;DHT22;55583;53.012;6.556;2023-03-14T11:49:36;10.50;92.40
52743;DHT22;55583;53.012;6.556;2023-03-14T11:52:20;11.50;72.70
52743;DHT22;55583;53.012;6.556;2023-03-14T11:55:10;12.90;65.40
52743;DHT22;55583;53.012;6.556;2023-03-14T11:57:39;14.70;55.70
52743;DHT22;55583;53.012;6.556;2023-03-14T12:00:23;15.70;75.30
52743;DHT22;55583;53.012;6.556;2023-03-14T12:06:05;14.80;53.40
52743;DHT22;55583;53.012;6.556;2023-03-14T12:13:59;13.70;62.00
52743;DHT22;55583;53.012;6.556;2023-03-14T12:18:52;14.10;71.00
52743;DHT22;55583;53.012;6.556;2023-03-14T12:21:18;13.90;71.90
52743;DHT22;55583;53.012;6.556;2023-03-14T12:23:54;14.50;73.30
52743;DHT22;55583;53.012;6.556;2023-03-14T12:26:25;14.90;69.70
52743;DHT22;55583;53.012;6.556;2023-03-14T12:44:43;12.00;74.70
52743;DHT22;55583;53.012;6.556;2023-03-14T12:49:51;12.50;64.10
52743;DHT22;55583;53.012;6.556;2023-03-14T12:52:29;12.40;70.30
52743;DHT22;55583;53.012;6.556;2023-03-14T12:55:10;11.90;70.50
52743;DHT22;55583;53.012;6.556;2023-03-14T12:57:47;11.10;66.90
52743;DHT22;55583;53.012;6.556;2023-03-14T13:00:20;10.90;66.60
52743;DHT22;55583;53.012;6.556;2023-03-14T13:02:47;10.90;68.80
52743;DHT22;55583;53.012;6.556;2023-03-14T13:05:21;11.30;70.90
52743;DHT22;55583;53.012;6.556;2023-03-14T13:10:27;12.30;80.10
52743;DHT22;55583;53.012;6.556;2023-03-14T13:13:16;12.60;65.50
52743;DHT22;55583;53.012;6.556;2023-03-14T13:15:45;12.80;73.40
52743;DHT22;55583;53.012;6.556;2023-03-14T13:18:16;13.10;79.40
52743;DHT22;55583;53.012;6.556;2023-03-14T13:20:50;13.60;74.20
52743;DHT22;55583;53.012;6.556;2023-03-14T13:23:23;13.90;67.90
52743;DHT22;55583;53.012;6.556;2023-03-14T13:25:49;13.80;69.90
52743;DHT22;55583;53.012;6.556;2023-03-14T13:28:15;13.90;76.10
52743;DHT22;55583;53.012;6.556;2023-03-14T13:30:44;13.70;72.60
52743;DHT22;55583;53.012;6.556;2023-03-14T13:33:18;13.30;65.90
52743;DHT22;55583;53.012;6.556;2023-03-14T13:35:53;12.60;58.30
52743;DHT22;55583;53.012;6.556;2023-03-14T13:38:22;12.20;63.50
52743;DHT22;55583;53.012;6.556;2023-03-14T13:40:50;12.00;64.60
52743;DHT22;55583;53.012;6.556;2023-03-14T13:45:56;11.60;64.80
52743;DHT22;55583;53.012;6.556;2023-03-14T13:48:28;11.50;57.80
52743;DHT22;55583;53.012;6.556;2023-03-14T13:50:58;11.60;67.30
52743;DHT22;55583;53.012;6.556;2023-03-14T13:53:25;11.70;63.70
52743;DHT22;55583;53.012;6.556;2023-03-14T13:55:51;11.80;65.50
52743;DHT22;55583;53.012;6.556;2023-03-14T13:58:28;12.00;66.00
52743;DHT22;55583;53.012;6.556;2023-03-14T14:00:57;12.10;61.10
52743;DHT22;55583;53.012;6.556;2023-03-14T14:03:24;12.30;67.20
52743;DHT22;55583;53.012;6.556;2023-03-14T14:05:49;12.60;70.20
52743;DHT22;55583;53.012;6.556;2023-03-14T14:08:15;13.20;72.00
52743;DHT22;55583;53.012;6.556;2023-03-14T14:10:41;13.50;68.00
52743;DHT22;55583;53.012;6.556;2023-03-14T14:13:10;13.70;66.40
52743;DHT22;55583;53.012;6.556;2023-03-14T14:15:43;13.50;64.90
52743;DHT22;55583;53.012;6.556;2023-03-14T14:18:12;12.80;64.60
52743;DHT22;55583;53.012;6.556;2023-03-14T14:20:45;12.10;63.70
52743;DHT22;55583;53.012;6.556;2023-03-14T14:23:14;11.80;61.30
52743;DHT22;55583;53.012;6.556;2023-03-14T14:25:40;11.40;60.60
52743;DHT22;55583;53.012;6.556;2023-03-14T14:30:45;11.10;59.30
52743;DHT22;55583;53.012;6.556;2023-03-14T14:33:21;10.90;62.50
52743;DHT22;55583;53.012;6.556;2023-03-14T14:35:51;11.00;59.20
52743;DHT22;55583;53.012;6.556;2023-03-14T14:38:18;11.30;64.80
52743;DHT22;55583;53.012;6.556;2023-03-14T14:40:48;11.30;64.10
52743;DHT22;55583;53.012;6.556;2023-03-14T14:43:27;11.00;61.60
52743;DHT22;55583;53.012;6.556;2023-03-14T14:45:55;10.80;60.70
52743;DHT22;55583;53.012;6.556;2023-03-14T14:48:24;10.80;63.30
52743;DHT22;55583;53.012;6.556;2023-03-14T14:51:01;10.70;64.70
52743;DHT22;55583;53.012;6.556;2023-03-14T14:53:43;10.60;61.40
52743;DHT22;55583;53.012;6.556;2023-03-14T14:56:26;10.20;62.00
52743;DHT22;55583;53.012;6.556;2023-03-14T14:58:57;10.00;62.00
52743;DHT22;55583;53.012;6.556;2023-03-14T15:01:25;9.80;62.30
52743;DHT22;55583;53.012;6.556;2023-03-14T15:03:55;9.60;64.00
52743;DHT22;55583;53.012;6.556;2023-03-14T15:06:22;9.50;66.70
52743;DHT22;55583;53.012;6.556;2023-03-14T15:08:49;9.20;65.60
52743;DHT22;55583;53.012;6.556;2023-03-14T15:11:20;9.30;65.40
52743;DHT22;55583;53.012;6.556;2023-03-14T15:13:51;9.90;65.60
52743;DHT22;55583;53.012;6.556;2023-03-14T15:16:23;10.20;67.60
52743;DHT22;55583;53.012;6.556;2023-03-14T15:18:57;10.60;67.70
52743;DHT22;55583;53.012;6.556;2023-03-14T15:21:24;10.80;62.40
52743;DHT22;55583;53.012;6.556;2023-03-14T15:23:50;10.60;61.40
52743;DHT22;55583;53.012;6.556;2023-03-14T15:26:20;10.20;57.90
52743;DHT22;55583;53.012;6.556;2023-03-14T15:28:47;9.90;57.10
52743;DHT22;55583;53.012;6.556;2023-03-14T15:31:14;9.80;59.90
52743;DHT22;55583;53.012;6.556;2023-03-14T15:33:40;9.60;60.50
52743;DHT22;55583;53.012;6.556;2023-03-14T15:38:41;9.50;59.20
52743;DHT22;55583;53.012;6.556;2023-03-14T15:41:07;9.30;60.40
52743;DHT22;55583;53.012;6.556;2023-03-14T15:43:34;9.10;59.90
52743;DHT22;55583;53.012;6.556;2023-03-14T15:46:00;9.00;61.10
52743;DHT22;55583;53.012;6.556;2023-03-14T15:48:25;8.90;61.20
52743;DHT22;55583;53.012;6.556;2023-03-14T15:50:51;8.80;61.20
52743;DHT22;55583;53.012;6.556;2023-03-14T15:53:17;8.60;61.70
52743;DHT22;55583;53.012;6.556;2023-03-14T15:55:42;8.50;61.10
52743;DHT22;55583;53.012;6.556;2023-03-14T15:58:16;8.30;61.10
52743;DHT22;55583;53.012;6.556;2023-03-14T16:00:42;8.20;61.30
52743;DHT22;55583;53.012;6.556;2023-03-14T16:03:08;8.00;61.40
52743;DHT22;55583;53.012;6.556;2023-03-14T16:05:34;7.80;61.80
52743;DHT22;55583;53.012;6.556;2023-03-14T16:07:59;7.70;61.60
52743;DHT22;55583;53.012;6.556;2023-03-14T16:10:27;7.50;62.00
52743;DHT22;55583;53.012;6.556;2023-03-14T16:12:52;7.30;62.90
52743;DHT22;55583;53.012;6.556;2023-03-14T16:15:18;7.20;63.60
52743;DHT22;55583;53.012;6.556;2023-03-14T16:17:43;7.20;64.10
52743;DHT22;55583;53.012;6.556;2023-03-14T16:20:10;7.10;64.90
52743;DHT22;55583;53.012;6.556;2023-03-14T16:22:36;7.00;66.20
52743;DHT22;55583;53.012;6.556;2023-03-14T16:25:04;6.80;67.60
52743;DHT22;55583;53.012;6.556;2023-03-14T16:27:30;6.50;69.70
52743;DHT22;55583;53.012;6.556;2023-03-14T16:29:57;6.30;71.80
52743;DHT22;55583;53.012;6.556;2023-03-14T16:32:25;6.00;75.80
52743;DHT22;55583;53.012;6.556;2023-03-14T16:34:51;5.70;80.30
52743;DHT22;55583;53.012;6.556;2023-03-14T16:37:16;5.50;82.90
52743;DHT22;55583;53.012;6.556;2023-03-14T16:39:42;5.40;85.20
52743;DHT22;55583;53.012;6.556;2023-03-14T16:42:08;5.40;89.60
52743;DHT22;55583;53.012;6.556;2023-03-14T16:44:33;5.40;90.50
52743;DHT22;55583;53.012;6.556;2023-03-14T16:46:59;5.50;91.90
52743;DHT22;55583;53.012;6.556;2023-03-14T16:49:24;5.50;92.80
52743;DHT22;55583;53.012;6.556;2023-03-14T16:51:50;5.70;93.50
52743;DHT22;55583;53.012;6.556;2023-03-14T16:54:16;5.80;94.00
52743;DHT22;55583;53.012;6.556;2023-03-14T16:56:41;6.00;94.70
52743;DHT22;55583;53.012;6.556;2023-03-14T16:59:07;6.00;94.90
52743;DHT22;55583;53.012;6.556;2023-03-14T17:01:32;6.00;94.80
52743;DHT22;55583;53.012;6.556;2023-03-14T17:03:58;5.80;94.70